Time;durP1;ratioP1;P1;durP2;ratioP2;P2;SDS_P1;SDS_P2;PMS_P1;PMS_P2;Temp;Humidity;BMP_temperature;BMP_pressure;BME280_temperature;BME280_humidity;BME280_pressure;Samples;Min_cycle;Max_cycle;Signal;HPM_P1;HPM_P2
2022/07/12 00:00:55;;;;;;;17.10;5.95;;;25.00;70.70;;;;;;5092234;28;20051;-67
2022/07/12 00:03:59;;;;;;;15.02;6.38;;;25.10;70.50;;;;;;5093088;28;20043;-68
2022/07/12 00:07:03;;;;;;;14.65;6.57;;;25.10;71.40;;;;;;5092149;28;20153;-67
2022/07/12 00:10:08;;;;;;;21.45;6.78;;;25.10;71.10;;;;;;5092859;28;20388;-67
2022/07/12 00:13:13;;;;;;;19.60;7.00;;;24.90;71.50;;;;;;5093136;28;20055;-67
2022/07/12 00:16:17;;;;;;;12.85;6.28;;;24.90;71.50;;;;;;5092820;28;20079;-67
2022/07/12 00:19:21;;;;;;;14.27;6.03;;;24.80;70.90;;;;;;5092999;28;20035;-67
2022/07/12 00:22:28;;;;;;;8.10;5.25;;;24.60;71.00;;;;;;5092632;28;20043;-67
2022/07/12 00:25:32;;;;;;;9.77;5.30;;;24.50;71.10;;;;;;5092592;28;20260;-67
2022/07/12 00:28:36;;;;;;;11.60;5.22;;;24.40;71.10;;;;;;5092603;28;20047;-67
2022/07/12 00:31:39;;;;;;;16.08;5.80;;;24.50;71.50;;;;;;5092610;28;20599;-67
2022/07/12 00:34:43;;;;;;;8.48;5.10;;;24.30;71.70;;;;;;5092609;28;20517;-67
2022/07/12 00:37:47;;;;;;;15.07;5.43;;;24.30;71.60;;;;;;5092759;28;20047;-67
2022/07/12 00:40:54;;;;;;;11.07;5.38;;;24.20;71.90;;;;;;5092647;28;20047;-67
2022/07/12 00:43:58;;;;;;;13.77;5.70;;;24.40;71.60;;;;;;5092545;28;20047;-67
2022/07/12 00:47:03;;;;;;;24.17;6.97;;;24.40;71.40;;;;;;5092514;28;20047;-67
2022/07/12 00:50:09;;;;;;;14.63;5.18;;;24.40;71.50;;;;;;5092285;28;20502;-67
2022/07/12 00:53:16;;;;;;;12.05;4.95;;;24.40;71.80;;;;;;5092455;28;20051;-67
2022/07/12 00:56:21;;;;;;;13.15;4.43;;;24.30;72.00;;;;;;5092064;28;20051;-67
2022/07/12 00:59:25;;;;;;;11.60;5.00;;;24.10;72.10;;;;;;5092050;28;20051;-67
2022/07/12 01:02:29;;;;;;;7.53;4.65;;;24.10;71.90;;;;;;5092333;28;20054;-67
2022/07/12 01:05:33;;;;;;;11.15;4.50;;;24.10;71.70;;;;;;5091884;28;20043;-67
2022/07/12 01:08:37;;;;;;;9.15;4.28;;;24.30;71.40;;;;;;5092089;28;20043;-67
2022/07/12 01:11:42;;;;;;;5.88;4.07;;;24.20;71.40;;;;;;5092130;28;20047;-67
2022/07/12 01:14:50;;;;;;;12.90;4.55;;;24.10;71.90;;;;;;5092242;28;20514;-67
2022/07/12 01:17:56;;;;;;;12.43;4.57;;;24.20;71.60;;;;;;5091885;28;20051;-68
2022/07/12 01:21:05;;;;;;;12.40;4.50;;;24.40;71.80;;;;;;5090973;28;20670;-67
2022/07/12 01:24:10;;;;;;;13.70;4.97;;;24.50;71.60;;;;;;5091852;28;20043;-67
2022/07/12 01:27:14;;;;;;;13.25;5.15;;;24.50;71.40;;;;;;5090856;28;20046;-68
2022/07/12 01:30:19;;;;;;;12.48;5.05;;;24.50;71.50;;;;;;5091804;28;20035;-68
2022/07/12 01:33:24;;;;;;;11.38;4.70;;;24.40;71.90;;;;;;5091782;28;20047;-67
2022/07/12 01:36:29;;;;;;;8.93;4.95;;;24.40;72.20;;;;;;5091482;28;20510;-67
2022/07/12 01:39:33;;;;;;;9.88;4.38;;;24.20;72.50;;;;;;5091313;28;20502;-67
2022/07/12 01:42:43;;;;;;;8.38;4.00;;;23.90;72.80;;;;;;5091458;28;20043;-68
2022/07/12 01:45:47;;;;;;;8.40;4.25;;;23.90;72.70;;;;;;5091085;28;20035;-67
2022/07/12 01:48:54;;;;;;;7.40;3.60;;;23.80;71.50;;;;;;5091267;28;20043;-67
2022/07/12 01:51:59;;;;;;;13.60;4.40;;;23.80;71.50;;;;;;5091175;28;20047;-67
2022/07/12 01:55:03;;;;;;;13.73;3.70;;;23.70;71.40;;;;;;5091084;28;20051;-67
2022/07/12 01:58:09;;;;;;;6.78;3.28;;;23.70;70.60;;;;;;5090309;28;20491;-68
2022/07/12 02:01:14;;;;;;;7.88;3.85;;;23.80;70.50;;;;;;5091446;28;20044;-67
2022/07/12 02:04:18;;;;;;;9.32;3.80;;;23.90;70.00;;;;;;5090698;28;20039;-67
2022/07/12 02:07:24;;;;;;;5.38;3.08;;;24.00;69.80;;;;;;5090979;28;20387;-67
2022/07/12 02:10:28;;;;;;;6.20;3.75;;;24.00;69.50;;;;;;5091363;28;20059;-68
2022/07/12 02:13:32;;;;;;;11.10;4.13;;;24.00;69.40;;;;;;5090991;28;20043;-67
2022/07/12 02:16:37;;;;;;;8.85;3.25;;;24.10;69.70;;;;;;5090899;28;20043;-67
2022/07/12 02:19:41;;;;;;;8.60;3.50;;;24.10;69.10;;;;;;5091192;28;20656;-67
2022/07/12 02:22:45;;;;;;;4.40;2.83;;;24.00;69.20;;;;;;5090831;28;20047;-66
2022/07/12 02:25:50;;;;;;;9.38;3.53;;;23.90;69.80;;;;;;5090975;28;20040;-67
2022/07/12 02:28:54;;;;;;;9.75;3.20;;;23.70;70.40;;;;;;5092094;28;20517;-66
2022/07/12 02:31:58;;;;;;;9.77;3.75;;;23.70;70.70;;;;;;5095074;28;20045;-66
2022/07/12 02:35:03;;;;;;;4.88;3.53;;;23.70;70.50;;;;;;5094829;28;20055;-66
2022/07/12 02:38:07;;;;;;;7.13;3.53;;;23.60;70.40;;;;;;5094667;28;20161;-66
2022/07/12 02:41:11;;;;;;;11.82;3.40;;;23.20;71.80;;;;;;5094989;28;20190;-67
2022/07/12 02:44:15;;;;;;;6.05;2.97;;;23.00;72.70;;;;;;5094971;28;20046;-66
2022/07/12 02:47:19;;;;;;;9.48;3.50;;;23.00;73.60;;;;;;5094874;28;20050;-66
2022/07/12 02:50:24;;;;;;;8.23;3.85;;;23.10;73.50;;;;;;5094495;28;20558;-66
2022/07/12 02:53:28;;;;;;;4.65;3.60;;;23.30;73.80;;;;;;5094556;28;20047;-66
2022/07/12 02:56:31;;;;;;;7.47;3.25;;;23.40;73.70;;;;;;5093505;28;20055;-66
2022/07/12 02:59:35;;;;;;;9.15;4.35;;;23.60;73.70;;;;;;5094322;28;20395;-67
2022/07/12 03:02:40;;;;;;;11.00;4.30;;;23.60;73.70;;;;;;5094243;28;20039;-66
2022/07/12 03:05:44;;;;;;;8.52;3.58;;;23.40;74.50;;;;;;5094279;28;20046;-67
2022/07/12 03:08:48;;;;;;;8.85;3.85;;;23.20;75.10;;;;;;5094350;28;20051;-66
2022/07/12 03:11:52;;;;;;;5.75;3.22;;;23.10;74.60;;;;;;5093948;28;20035;-66
2022/07/12 03:14:56;;;;;;;6.90;3.33;;;22.90;73.90;;;;;;5093948;28;20051;-67
2022/07/12 03:18:01;;;;;;;5.43;3.00;;;22.80;74.20;;;;;;5093991;28;20043;-66
2022/07/12 03:21:05;;;;;;;13.13;3.65;;;22.70;74.30;;;;;;5094223;28;20375;-67
2022/07/12 03:24:10;;;;;;;9.05;3.08;;;22.70;74.70;;;;;;5094265;28;20055;-67
2022/07/12 03:27:14;;;;;;;8.55;3.38;;;22.80;74.10;;;;;;5093768;28;20150;-67
2022/07/12 03:30:18;;;;;;;12.05;3.45;;;22.80;73.80;;;;;;5094112;28;20522;-66
2022/07/12 03:33:22;;;;;;;5.80;3.00;;;22.80;73.40;;;;;;5093757;28;20047;-67
2022/07/12 03:36:26;;;;;;;11.75;3.42;;;22.80;73.30;;;;;;5093816;28;20074;-67
2022/07/12 03:39:30;;;;;;;9.60;3.38;;;22.70;73.80;;;;;;5093344;28;20051;-66
2022/07/12 03:42:35;;;;;;;10.85;4.25;;;22.80;74.20;;;;;;5093599;28;20039;-66
2022/07/12 03:45:42;;;;;;;12.80;4.38;;;22.70;74.40;;;;;;5093870;28;20051;-68
2022/07/12 03:48:45;;;;;;;8.57;4.50;;;22.70;74.60;;;;;;5081320;28;20043;-67
2022/07/12 03:51:50;;;;;;;13.05;5.10;;;22.80;74.80;;;;;;5094105;28;20411;-67
2022/07/12 03:54:53;;;;;;;10.55;5.30;;;22.70;74.80;;;;;;5093369;28;20411;-68
2022/07/12 03:57:57;;;;;;;13.65;5.00;;;22.60;75.40;;;;;;5092946;28;20039;-66
2022/07/12 04:01:01;;;;;;;14.60;5.03;;;22.60;75.90;;;;;;5093394;28;20047;-67
2022/07/12 04:04:05;;;;;;;9.25;5.05;;;22.60;76.10;;;;;;5093698;28;20047;-68
2022/07/12 04:07:09;;;;;;;10.02;4.85;;;22.50;77.00;;;;;;5093179;28;20552;-67
2022/07/12 04:10:13;;;;;;;11.98;5.35;;;22.70;76.70;;;;;;5093213;28;20039;-66
2022/07/12 04:13:17;;;;;;;9.95;5.35;;;22.90;76.60;;;;;;5093152;28;20047;-67
2022/07/12 04:16:21;;;;;;;9.65;5.13;;;22.90;76.90;;;;;;5093221;28;20051;-67
2022/07/12 04:19:27;;;;;;;21.42;5.43;;;22.70;77.40;;;;;;5093095;28;20395;-67
2022/07/12 04:22:31;;;;;;;16.23;6.15;;;22.70;78.30;;;;;;5093080;28;20047;-66
2022/07/12 04:25:35;;;;;;;15.80;5.95;;;22.70;78.40;;;;;;5092726;28;20043;-68
2022/07/12 04:28:39;;;;;;;9.55;5.20;;;22.90;77.90;;;;;;5091929;28;20047;-68
2022/07/12 04:31:43;;;;;;;24.35;5.55;;;23.10;77.70;;;;;;5092637;28;20039;-68
2022/07/12 04:34:47;;;;;;;9.00;5.78;;;23.00;78.00;;;;;;5092506;28;20605;-68
2022/07/12 04:37:51;;;;;;;16.75;7.22;;;22.90;78.20;;;;;;5092466;28;20035;-66
2022/07/12 04:40:55;;;;;;;11.43;5.47;;;22.90;78.40;;;;;;5092622;28;20047;-67
2022/07/12 04:44:02;;;;;;;19.85;5.25;;;22.80;78.50;;;;;;5092419;28;20094;-68
2022/07/12 04:47:06;;;;;;;18.10;5.10;;;22.80;78.50;;;;;;5092224;28;20039;-67
2022/07/12 04:50:10;;;;;;;13.77;4.82;;;23.10;78.10;;;;;;5092162;28;20051;-67
2022/07/12 04:53:14;;;;;;;36.35;5.65;;;23.60;75.70;;;;;;5091761;28;20043;-67
2022/07/12 04:56:17;;;;;;;15.82;4.88;;;24.00;74.80;;;;;;5092046;28;20051;-66
2022/07/12 04:59:22;;;;;;;19.67;4.70;;;24.60;73.90;;;;;;5079914;28;20523;-66
2022/07/12 05:02:26;;;;;;;17.85;5.50;;;25.40;72.20;;;;;;5092475;28;20395;-66
2022/07/12 05:05:30;;;;;;;21.58;5.30;;;25.60;71.80;;;;;;5091258;28;20035;-66
2022/07/12 05:08:34;;;;;;;24.25;5.85;;;25.70;71.90;;;;;;5092418;28;20043;-67
2022/07/12 05:11:38;;;;;;;19.27;5.50;;;25.60;71.90;;;;;;5091916;28;20043;-66
2022/07/12 05:14:42;;;;;;;20.55;5.90;;;25.60;71.80;;;;;;5092275;28;20125;-67
2022/07/12 05:17:46;;;;;;;24.60;5.43;;;25.50;71.40;;;;;;5091806;28;20039;-67
2022/07/12 05:20:50;;;;;;;18.95;6.32;;;25.60;71.40;;;;;;5092026;28;20368;-67
2022/07/12 05:23:54;;;;;;;10.57;5.38;;;25.60;71.00;;;;;;5091814;28;20047;-67
2022/07/12 05:26:58;;;;;;;16.02;5.35;;;25.70;70.60;;;;;;5091532;28;20035;-66
2022/07/12 05:30:04;;;;;;;10.60;4.50;;;26.10;70.20;;;;;;5091798;28;20043;-67
2022/07/12 05:33:07;;;;;;;15.30;4.97;;;25.90;69.90;;;;;;5092191;28;20043;-67
2022/07/12 05:36:11;;;;;;;13.55;4.95;;;25.90;69.70;;;;;;5091204;28;20051;-67
2022/07/12 05:39:15;;;;;;;21.92;5.38;;;25.90;69.60;;;;;;5090867;28;20066;-67
2022/07/12 05:42:19;;;;;;;23.40;6.57;;;26.00;70.40;;;;;;5091801;28;20047;-66
2022/07/12 05:45:23;;;;;;;27.90;7.50;;;26.30;69.30;;;;;;5091362;28;20035;-68
2022/07/12 05:48:27;;;;;;;32.00;7.15;;;26.30;69.20;;;;;;5091468;28;20047;-66
2022/07/12 05:54:53;;;;;;;24.63;6.70;;;26.70;69.10;;;;;;5091248;28;20411;-67
2022/07/12 05:57:57;;;;;;;26.42;7.13;;;26.90;68.70;;;;;;5091294;28;20043;-68
2022/07/12 06:01:01;;;;;;;21.23;5.95;;;26.90;69.20;;;;;;5090386;28;20055;-68
2022/07/12 06:04:05;;;;;;;25.70;6.10;;;27.00;69.30;;;;;;5090675;28;20039;-68
2022/07/12 06:07:09;;;;;;;23.92;6.07;;;27.00;68.80;;;;;;5091159;28;20047;-70
2022/07/12 06:10:13;;;;;;;20.38;6.60;;;27.20;69.20;;;;;;5090477;28;20043;-68
2022/07/12 06:13:17;;;;;;;13.98;4.68;;;27.70;68.40;;;;;;5078856;28;20051;-67
2022/07/12 06:16:21;;;;;;;19.38;5.40;;;28.20;67.20;;;;;;5090059;28;20062;-70
2022/07/12 06:19:26;;;;;;;24.63;5.25;;;28.60;66.80;;;;;;5091176;28;20055;-68
2022/07/12 06:22:30;;;;;;;25.38;6.30;;;28.80;66.50;;;;;;5090952;28;20055;-66
2022/07/12 06:25:34;;;;;;;24.70;7.22;;;28.70;66.40;;;;;;5090927;28;20047;-67
2022/07/12 06:28:41;;;;;;;15.73;5.78;;;28.90;66.50;;;;;;5090999;28;20506;-71
2022/07/12 06:31:45;;;;;;;24.98;6.53;;;29.00;66.30;;;;;;5090414;28;20035;-72
2022/07/12 06:34:49;;;;;;;17.58;5.32;;;29.10;67.70;;;;;;5090512;28;20051;-73
2022/07/12 06:37:53;;;;;;;28.42;5.60;;;29.40;67.90;;;;;;5090250;28;20035;-68
2022/07/12 06:40:57;;;;;;;17.88;4.95;;;29.70;67.00;;;;;;5090634;28;20071;-69
2022/07/12 06:44:01;;;;;;;10.88;3.80;;;29.90;66.30;;;;;;5089772;28;20714;-69
2022/07/12 06:47:05;;;;;;;12.80;3.78;;;29.90;66.60;;;;;;5090671;28;20038;-70
2022/07/12 06:50:10;;;;;;;11.35;3.72;;;30.20;66.60;;;;;;5089690;28;20051;-73
2022/07/12 06:53:14;;;;;;;11.93;3.30;;;30.20;66.60;;;;;;5090803;28;20044;-71
2022/07/12 06:56:17;;;;;;;11.32;3.33;;;30.30;67.10;;;;;;5090033;28;20054;-71
2022/07/12 06:59:22;;;;;;;9.50;3.95;;;30.40;67.40;;;;;;5090727;28;20047;-67
2022/07/12 07:02:26;;;;;;;12.05;3.30;;;30.40;67.70;;;;;;5090789;28;20059;-70
2022/07/12 07:05:30;;;;;;;9.02;3.80;;;30.50;67.40;;;;;;5089474;28;20058;-70
2022/07/12 07:08:34;;;;;;;11.88;3.60;;;30.70;67.20;;;;;;5089764;28;20067;-71
2022/07/12 07:11:40;;;;;;;15.23;3.47;;;30.80;66.00;;;;;;5090630;28;20043;-67
2022/07/12 07:14:45;;;;;;;13.02;4.32;;;31.00;65.40;;;;;;5093055;28;20665;-70
2022/07/12 07:17:50;;;;;;;21.20;4.32;;;31.20;64.80;;;;;;5093731;28;20122;-71
2022/07/12 07:20:54;;;;;;;17.90;3.58;;;31.30;64.90;;;;;;5093797;28;20043;-68
2022/07/12 07:23:58;;;;;;;12.35;3.25;;;31.20;65.00;;;;;;5094216;28;20046;-71
2022/07/12 07:27:03;;;;;;;14.70;3.80;;;30.90;65.60;;;;;;5094016;28;20047;-69
2022/07/12 07:33:29;;;;;;;16.33;3.65;;;31.00;65.20;;;;;;5093952;28;20047;-68
2022/07/12 07:36:33;;;;;;;13.95;3.58;;;31.10;64.70;;;;;;5093005;28;20518;-68
2022/07/12 07:39:37;;;;;;;14.40;3.70;;;31.30;64.10;;;;;;5093842;28;20043;-66
2022/07/12 07:42:41;;;;;;;10.90;3.22;;;31.50;63.50;;;;;;5093740;28;20047;-67
2022/07/12 07:45:45;;;;;;;11.48;3.33;;;31.80;63.20;;;;;;5093951;28;20401;-66
2022/07/12 07:48:50;;;;;;;18.52;3.53;;;32.10;62.50;;;;;;5093717;28;20043;-66
2022/07/12 07:51:54;;;;;;;15.23;3.28;;;32.30;61.80;;;;;;5093549;28;20043;-66
2022/07/12 07:54:57;;;;;;;13.00;3.50;;;32.30;61.40;;;;;;5093570;28;20043;-66
2022/07/12 07:58:01;;;;;;;18.77;3.50;;;32.30;61.30;;;;;;5093201;28;20051;-67
2022/07/12 08:01:05;;;;;;;18.20;3.72;;;32.30;61.10;;;;;;5092685;28;20035;-68
2022/07/12 08:04:13;;;;;;;15.68;3.50;;;32.40;60.60;;;;;;5092761;28;20106;-66
2022/07/12 08:07:20;;;;;;;10.35;3.30;;;32.40;60.50;;;;;;5093323;28;20502;-65
2022/07/12 08:10:25;;;;;;;15.07;3.70;;;32.50;60.50;;;;;;5093085;28;20035;-67
2022/07/12 08:13:29;;;;;;;12.48;3.58;;;32.60;60.30;;;;;;5092468;28;20039;-72
2022/07/12 08:16:34;;;;;;;15.93;3.72;;;32.80;60.30;;;;;;5092810;28;20051;-69
2022/07/12 08:19:38;;;;;;;22.83;3.45;;;33.20;60.30;;;;;;5093440;28;20396;-69
2022/07/12 08:22:46;;;;;;;12.55;4.10;;;33.40;59.40;;;;;;5093678;28;20056;-70
2022/07/12 08:25:50;;;;;;;14.73;3.80;;;33.60;59.20;;;;;;5092084;28;20043;-69
2022/07/12 08:28:54;;;;;;;16.80;3.80;;;33.70;58.90;;;;;;5093419;28;20050;-68
2022/07/12 08:31:58;;;;;;;13.32;3.50;;;33.50;59.20;;;;;;5092338;28;20043;-65
2022/07/12 08:35:01;;;;;;;14.43;3.35;;;33.50;59.40;;;;;;5092880;28;20043;-68
2022/07/12 08:38:05;;;;;;;17.83;3.90;;;33.70;59.00;;;;;;5092730;28;20061;-69
2022/07/12 08:41:12;;;;;;;7.88;3.40;;;33.80;58.90;;;;;;5093285;28;20047;-67
2022/07/12 08:44:16;;;;;;;11.00;4.00;;;33.70;59.90;;;;;;5092339;28;20047;-73
2022/07/12 08:47:21;;;;;;;13.85;3.45;;;33.80;58.10;;;;;;5090849;28;20047;-66
2022/07/12 08:50:26;;;;;;;22.17;4.90;;;33.80;58.40;;;;;;5090663;28;20427;-69
2022/07/12 08:53:34;;;;;;;18.42;3.72;;;33.90;59.10;;;;;;5091719;28;20035;-68
2022/07/12 08:56:40;;;;;;;11.15;3.80;;;34.00;59.50;;;;;;5091946;28;20437;-68
2022/07/12 08:59:47;;;;;;;17.23;3.83;;;34.00;59.00;;;;;;5092102;28;20050;-69
2022/07/12 09:03:02;;;;;;;9.48;3.25;;;33.90;59.00;;;;;;5091713;28;20403;-68
2022/07/12 09:06:06;;;;;;;12.52;3.20;;;33.90;59.50;;;;;;5091273;28;20035;-67
2022/07/12 09:09:10;;;;;;;8.48;2.95;;;34.00;60.30;;;;;;5092266;28;20047;-68
2022/07/12 09:12:22;;;;;;;21.58;3.70;;;34.00;61.40;;;;;;5092127;28;20051;-67
2022/07/12 09:15:27;;;;;;;10.70;2.78;;;34.10;61.60;;;;;;5092023;28;20416;-69
2022/07/12 09:18:31;;;;;;;12.52;2.97;;;34.30;61.50;;;;;;5091938;28;20043;-68
2022/07/12 09:21:35;;;;;;;14.70;2.85;;;34.30;61.30;;;;;;5091976;28;20051;-68
2022/07/12 09:24:39;;;;;;;11.18;3.13;;;34.40;60.50;;;;;;5091996;28;20112;-68
2022/07/12 09:27:59;;;;;;;6.22;2.70;;;34.50;59.60;;;;;;5092136;28;20063;-68
2022/07/12 09:31:04;;;;;;;6.20;2.33;;;34.40;59.00;;;;;;5091446;28;20062;-69
2022/07/12 09:37:39;;;;;;;4.93;2.33;;;34.40;59.50;;;;;;5090549;28;20054;-68
2022/07/12 09:40:44;;;;;;;7.10;2.45;;;34.50;58.90;;;;;;5091846;28;20502;-67
2022/07/12 09:43:49;;;;;;;7.70;2.20;;;34.60;58.60;;;;;;5091884;28;20038;-68
2022/07/12 09:46:54;;;;;;;7.90;2.20;;;34.60;58.10;;;;;;5091656;28;20050;-68
2022/07/12 09:49:58;;;;;;;10.55;2.95;;;34.70;57.00;;;;;;5089586;28;20059;-67
2022/07/12 09:53:03;;;;;;;7.10;2.17;;;34.70;57.90;;;;;;5075061;28;20047;-67
2022/07/12 09:56:11;;;;;;;5.28;1.80;;;34.70;54.80;;;;;;5086702;28;20058;-67
2022/07/12 09:59:20;;;;;;;2.70;1.60;;;34.50;52.90;;;;;;5087741;28;20305;-67
2022/07/12 10:02:25;;;;;;;6.13;2.03;;;34.40;55.10;;;;;;5087765;28;20510;-67
2022/07/12 10:05:30;;;;;;;3.53;1.73;;;34.40;55.20;;;;;;5087634;28;20490;-66
2022/07/12 10:08:35;;;;;;;5.75;1.67;;;34.50;53.10;;;;;;5088878;28;20043;-67
2022/07/12 10:11:43;;;;;;;3.30;1.90;;;34.60;51.90;;;;;;5089557;28;20047;-67
2022/07/12 10:15:00;;;;;;;7.68;1.48;;;34.70;53.80;;;;;;5090963;28;20084;-68
2022/07/12 10:18:05;;;;;;;3.40;1.30;;;34.70;53.10;;;;;;5091161;28;20407;-68
2022/07/12 10:21:24;;;;;;;5.22;1.70;;;34.80;51.20;;;;;;5090989;28;20036;-66
2022/07/12 10:24:44;;;;;;;4.28;1.92;;;34.70;51.90;;;;;;5090953;28;20403;-67
2022/07/12 10:27:49;;;;;;;6.07;2.47;;;34.70;52.90;;;;;;5091030;28;20511;-68
2022/07/12 10:30:53;;;;;;;7.45;2.90;;;34.50;53.10;;;;;;5090172;28;20062;-67
2022/07/12 10:34:13;;;;;;;6.68;2.90;;;34.50;54.60;;;;;;5078809;28;20051;-67
2022/07/12 10:37:18;;;;;;;8.45;3.28;;;34.50;58.90;;;;;;5090805;28;20047;-66
2022/07/12 10:40:22;;;;;;;8.55;3.20;;;34.50;58.90;;;;;;5090965;28;20039;-68
2022/07/12 10:47:00;;;;;;;9.55;3.75;;;34.40;60.50;;;;;;5091057;28;20051;-68
2022/07/12 10:50:04;;;;;;;9.57;3.10;;;34.30;61.40;;;;;;5092169;28;20074;-67
2022/07/12 10:53:23;;;;;;;8.70;3.88;;;34.30;61.40;;;;;;5094786;28;20039;-67
2022/07/12 10:56:32;;;;;;;9.45;3.42;;;34.20;61.10;;;;;;5094068;28;20055;-69
2022/07/12 10:59:37;;;;;;;13.18;3.83;;;34.10;61.70;;;;;;5094603;28;20522;-71
2022/07/12 11:02:41;;;;;;;8.98;3.13;;;34.10;62.20;;;;;;5093884;28;20039;-67
2022/07/12 11:05:46;;;;;;;14.40;3.90;;;34.00;63.10;;;;;;5094421;28;20042;-68
2022/07/12 11:09:00;;;;;;;12.82;4.25;;;33.90;63.20;;;;;;5094002;28;20514;-68
2022/07/12 11:12:07;;;;;;;11.48;4.00;;;33.80;64.00;;;;;;5093577;28;20043;-68
2022/07/12 11:15:13;;;;;;;12.32;4.07;;;33.80;64.30;;;;;;5094169;28;20059;-69
2022/07/12 11:18:35;;;;;;;8.32;4.07;;;33.70;64.20;;;;;;5094530;28;20055;-68
2022/07/12 11:21:43;;;;;;;8.23;3.47;;;33.60;64.20;;;;;;5093459;28;20396;-68
2022/07/12 11:24:47;;;;;;;15.13;3.88;;;33.60;64.00;;;;;;5094144;28;20051;-68
2022/07/12 11:27:51;;;;;;;13.98;3.40;;;33.60;63.70;;;;;;5093961;28;20055;-68
2022/07/12 11:31:05;;;;;;;10.90;3.40;;;33.60;62.60;;;;;;5093287;28;20043;-67
2022/07/12 11:34:25;;;;;;;8.32;3.00;;;33.60;63.00;;;;;;5093138;28;20043;-67
2022/07/12 11:37:30;;;;;;;9.45;3.58;;;33.60;62.90;;;;;;5093043;28;20047;-68
2022/07/12 11:40:34;;;;;;;13.20;4.10;;;33.50;63.30;;;;;;5093836;28;20035;-68
2022/07/12 11:43:39;;;;;;;8.02;3.47;;;33.50;63.10;;;;;;5093798;28;20051;-67
2022/07/12 11:46:50;;;;;;;7.25;3.17;;;33.50;63.00;;;;;;5094078;28;20047;-68
2022/07/12 11:49:55;;;;;;;11.82;3.15;;;33.40;63.20;;;;;;5093815;28;20062;-68
2022/07/12 11:52:59;;;;;;;8.65;3.20;;;33.40;63.00;;;;;;5093615;28;20038;-68
2022/07/12 11:56:05;;;;;;;4.38;2.92;;;33.40;63.20;;;;;;5092858;28;20051;-68
2022/07/12 11:59:09;;;;;;;10.02;3.15;;;33.50;63.20;;;;;;5093875;28;20051;-67
2022/07/12 12:02:15;;;;;;;4.30;2.38;;;33.40;62.80;;;;;;5091759;28;20636;-69
2022/07/12 12:05:20;;;;;;;7.57;2.90;;;33.40;62.90;;;;;;5093545;28;20384;-68
2022/07/12 12:08:25;;;;;;;5.18;3.22;;;33.40;62.40;;;;;;5094049;28;20066;-68
2022/07/12 12:11:29;;;;;;;7.57;3.08;;;33.50;62.70;;;;;;5092899;28;20047;-68
2022/07/12 12:14:34;;;;;;;9.63;3.17;;;33.40;63.00;;;;;;5092366;28;20400;-71
2022/07/12 12:17:56;;;;;;;8.73;3.30;;;33.40;62.40;;;;;;5092949;28;20047;-68
2022/07/12 12:21:12;;;;;;;7.03;3.42;;;33.30;62.80;;;;;;5093224;28;20399;-69
2022/07/12 12:24:17;;;;;;;9.75;3.20;;;33.10;63.50;;;;;;5093860;28;20055;-67
2022/07/12 12:27:24;;;;;;;6.03;3.35;;;33.00;63.80;;;;;;5092911;28;20055;-68
2022/07/12 12:30:31;;;;;;;9.88;3.88;;;33.00;63.70;;;;;;5093416;28;20047;-67
2022/07/12 12:33:49;;;;;;;6.85;2.72;;;33.10;62.70;;;;;;5092365;28;20036;-69
2022/07/12 12:36:53;;;;;;;12.05;3.20;;;33.10;62.40;;;;;;5091807;28;20518;-68
2022/07/12 12:39:58;;;;;;;12.55;3.20;;;33.10;62.30;;;;;;5092193;28;20518;-68
2022/07/12 12:43:10;;;;;;;10.43;3.47;;;33.20;62.00;;;;;;5093215;28;20051;-71
2022/07/12 12:46:14;;;;;;;8.23;2.72;;;33.10;61.40;;;;;;5093059;28;20062;-67
2022/07/12 12:49:18;;;;;;;6.00;2.70;;;33.10;60.40;;;;;;5092486;28;20043;-68
2022/07/12 12:52:23;;;;;;;8.95;2.78;;;33.00;60.30;;;;;;5092654;28;20055;-68
2022/07/12 12:55:27;;;;;;;4.07;2.45;;;33.00;60.30;;;;;;5092640;28;20035;-69
2022/07/12 12:58:31;;;;;;;6.68;2.60;;;33.00;59.20;;;;;;5092486;28;20039;-70
2022/07/12 13:01:36;;;;;;;6.72;2.40;;;33.00;58.70;;;;;;5092770;28;20039;-67
2022/07/12 13:04:40;;;;;;;7.18;2.60;;;33.00;58.80;;;;;;5092482;28;20047;-70
2022/07/12 13:07:44;;;;;;;9.70;2.67;;;33.00;58.90;;;;;;5091342;28;20043;-67
2022/07/12 13:11:18;;;;;;;10.90;2.67;;;33.00;58.50;;;;;;5092416;28;20396;-69
2022/07/12 13:14:15;;;;;;;8.55;2.00;;;33.00;57.90;;;;;;5093819;28;20043;-68
2022/07/12 13:17:18;;;;;;;11.45;2.40;;;33.00;57.60;;;;;;5093110;28;20055;-69
2022/07/12 13:20:24;;;;;;;4.63;2.10;;;33.00;57.80;;;;;;5092365;28;20502;-68
2022/07/12 13:23:28;;;;;;;6.50;1.80;;;33.00;57.60;;;;;;5092593;28;20495;-67
2022/07/12 13:26:33;;;;;;;7.32;2.67;;;33.00;56.80;;;;;;5092497;28;20399;-69
2022/07/12 13:29:37;;;;;;;6.60;2.00;;;33.00;57.00;;;;;;5092250;28;20514;-68
2022/07/12 13:32:41;;;;;;;5.90;2.08;;;33.00;56.50;;;;;;5091406;28;20039;-69
2022/07/12 13:35:45;;;;;;;7.53;2.80;;;32.90;55.90;;;;;;5091103;28;20039;-68
2022/07/12 13:38:49;;;;;;;3.50;2.00;;;32.90;58.00;;;;;;5092055;28;20494;-68
2022/07/12 13:41:54;;;;;;;3.95;2.15;;;32.80;56.50;;;;;;5092029;28;20039;-68
2022/07/12 13:44:58;;;;;;;3.97;1.77;;;32.80;56.40;;;;;;5091251;28;20051;-69
2022/07/12 13:48:03;;;;;;;4.20;1.80;;;32.90;56.60;;;;;;5091784;28;20047;-72
2022/07/12 13:51:08;;;;;;;4.88;1.48;;;32.90;57.00;;;;;;5091754;28;20078;-69
2022/07/12 13:54:11;;;;;;;3.22;1.75;;;33.00;56.80;;;;;;5091885;28;20110;-69
2022/07/12 13:57:16;;;;;;;4.65;1.70;;;33.00;56.70;;;;;;5091699;28;20059;-68
2022/07/12 14:00:20;;;;;;;1.65;1.33;;;33.00;56.10;;;;;;5091888;28;20043;-68
2022/07/12 14:03:23;;;;;;;4.07;1.70;;;33.00;56.00;;;;;;5091733;28;20047;-68
2022/07/12 14:06:30;;;;;;;4.63;1.95;;;33.00;54.90;;;;;;5090855;28;20051;-68
2022/07/12 14:09:33;;;;;;;13.55;2.60;;;33.10;55.00;;;;;;5091210;28;20502;-68
2022/07/12 14:12:38;;;;;;;7.82;2.20;;;33.10;54.40;;;;;;5091291;28;20055;-68
2022/07/12 14:15:43;;;;;;;3.17;1.92;;;33.10;53.40;;;;;;5091034;28;20039;-68
2022/07/12 14:18:50;;;;;;;2.65;1.90;;;33.10;53.90;;;;;;5091406;28;20039;-68
2022/07/12 14:21:54;;;;;;;7.72;2.10;;;33.20;53.60;;;;;;5090580;28;20602;-70
2022/07/12 14:24:58;;;;;;;7.68;1.65;;;33.20;52.30;;;;;;5092028;28;20047;-68
2022/07/12 14:28:03;;;;;;;3.72;1.80;;;33.20;51.50;;;;;;5095691;28;20395;-68
2022/07/12 14:31:08;;;;;;;6.57;1.65;;;33.20;51.30;;;;;;5095398;28;20039;-69
2022/07/12 14:34:12;;;;;;;3.83;2.05;;;33.20;51.00;;;;;;5095283;28;20047;-68
2022/07/12 14:37:17;;;;;;;3.80;1.85;;;33.20;52.10;;;;;;5095317;28;20063;-69
2022/07/12 14:40:21;;;;;;;4.82;1.50;;;33.20;51.70;;;;;;5094462;28;20138;-68
2022/07/12 14:43:25;;;;;;;3.97;1.60;;;33.20;51.90;;;;;;5095427;28;20051;-69
2022/07/12 14:46:29;;;;;;;5.80;1.88;;;33.20;52.20;;;;;;5095627;28;20043;-69
2022/07/12 14:49:33;;;;;;;3.00;1.75;;;33.20;51.80;;;;;;5095155;28;20051;-68
2022/07/12 14:52:37;;;;;;;3.50;2.00;;;33.20;52.30;;;;;;5095198;28;20051;-68
2022/07/12 14:55:40;;;;;;;4.80;2.00;;;33.10;51.40;;;;;;5094493;28;20475;-70
2022/07/12 14:58:45;;;;;;;6.80;2.85;;;33.00;52.50;;;;;;5094655;28;20097;-69
2022/07/12 15:01:50;;;;;;;4.60;2.03;;;33.00;52.70;;;;;;5094666;28;20047;-69
2022/07/12 15:04:54;;;;;;;4.15;2.60;;;32.90;53.40;;;;;;5094439;28;20051;-67
2022/07/12 15:07:58;;;;;;;10.77;3.03;;;32.70;54.00;;;;;;5094329;28;20648;-67
2022/07/12 15:11:02;;;;;;;5.80;2.70;;;32.60;54.30;;;;;;5094205;28;20059;-70
2022/07/12 15:14:06;;;;;;;6.15;1.92;;;32.50;55.00;;;;;;5094292;28;20043;-67
2022/07/12 15:17:11;;;;;;;6.05;2.35;;;32.40;55.40;;;;;;5094410;28;20051;-67
2022/07/12 15:20:14;;;;;;;7.85;2.70;;;32.30;55.90;;;;;;5093692;28;20047;-67
2022/07/12 15:23:19;;;;;;;8.65;3.35;;;32.30;56.50;;;;;;5094455;28;20047;-68
2022/07/12 15:26:22;;;;;;;5.45;1.73;;;32.20;56.50;;;;;;5094345;28;20071;-69
2022/07/12 15:29:27;;;;;;;3.33;1.85;;;32.20;56.50;;;;;;5093989;28;20043;-68
2022/07/12 15:32:31;;;;;;;3.08;1.60;;;32.20;56.90;;;;;;5094002;28;20047;-65
2022/07/12 15:35:36;;;;;;;7.28;1.92;;;32.20;55.80;;;;;;5093960;28;20391;-67
2022/07/12 15:38:42;;;;;;;4.43;2.35;;;32.20;55.80;;;;;;5093933;28;20545;-67
2022/07/12 15:41:46;;;;;;;8.93;1.98;;;32.10;56.00;;;;;;5093710;28;20059;-69
2022/07/12 15:44:53;;;;;;;4.38;1.60;;;32.00;57.40;;;;;;5093821;28;20643;-68
2022/07/12 15:48:00;;;;;;;5.78;2.22;;;32.00;56.10;;;;;;5093060;28;20051;-68
2022/07/12 15:51:07;;;;;;;9.77;2.28;;;32.00;56.40;;;;;;5081011;28;20055;-68
2022/07/12 15:54:12;;;;;;;8.98;2.60;;;32.50;56.10;;;;;;5093685;28;20055;-68
2022/07/12 15:57:16;;;;;;;12.30;3.10;;;33.90;54.10;;;;;;5093323;28;20051;-70
2022/07/12 16:00:21;;;;;;;4.57;2.80;;;35.30;52.20;;;;;;5093638;28;20051;-69
2022/07/12 16:03:27;;;;;;;9.00;2.60;;;36.10;51.00;;;;;;5093180;28;20047;-68
2022/07/12 16:06:31;;;;;;;7.82;3.00;;;36.50;50.10;;;;;;5093493;28;20051;-66
2022/07/12 16:09:35;;;;;;;6.13;2.63;;;36.90;50.70;;;;;;5093706;28;20047;-70
2022/07/12 16:12:39;;;;;;;8.18;2.20;;;37.00;50.40;;;;;;5093407;28;20388;-68